Argora, Idaho
Current Conditions -  °F | °C
As of 7:53 AM on Thursday 30 Oct 2014 (Local Time) from KRXE Reporting Station
Clear Clear  
Wind Chill: 32°   Ceiling: Unl
Heat Index: 37°   Visibility: 10mi
Dew Point: 31°   Wind: 6mph
Humidity: 79%   Direction: 50°NE
Pressure: 30.29"   Gusts: NA
Location:  44.2396°N, 112.579°W
Report Text: KRXE 301353Z AUTO 05005KT 10SM CLR 03/M01 A3029 RMK AO2 SLP262 T00281006
Loading
Personal Weather Stations






























Interactive Weather Map
Tropical Storm Tracking
New forecast layout! Learn more

10-Day Weather Forecast

Advertisements
Track Severe Weather on mobile